Time;durP1;ratioP1;P1;durP2;ratioP2;P2;SDS_P1;SDS_P2;PMS_P1;PMS_P2;Temp;Humidity;BMP_temperature;BMP_pressure;BME280_temperature;BME280_humidity;BME280_pressure;Samples;Min_cycle;Max_cycle;Signal;HPM_P1;HPM_P2
2022/09/10 00:00:37;;;;;;;9.38;1.08;;;;;;;;;;5044895;28;20510;-67
2022/09/10 00:03:04;;;;;;;11.27;1.30;;;;;;;;;;5048470;28;20064;-67
2022/09/10 00:05:37;;;;;;;13.82;1.60;;;;;;;;;;5044690;28;20111;-68
2022/09/10 00:08:05;;;;;;;5.18;0.63;;;;;;;;;;5044479;28;20029;-68
2022/09/10 00:10:36;;;;;;;10.93;1.42;;;;;;;;;;5044927;28;20526;-68
2022/09/10 00:13:03;;;;;;;17.55;1.83;;;;;;;;;;5044603;28;20495;-68
2022/09/10 00:15:29;;;;;;;14.93;1.58;;;;;;;;;;5046419;28;20490;-66
2022/09/10 00:17:55;;;;;;;30.73;3.45;;;;;;;;;;5050161;28;20039;-65
2022/09/10 00:20:22;;;;;;;14.70;2.28;;;;;;;;;;5048559;28;20036;-65
2022/09/10 00:22:49;;;;;;;24.13;3.08;;;;;;;;;;5051659;28;20489;-65
2022/09/10 00:25:16;;;;;;;26.60;3.40;;;;;;;;;;5050442;28;20048;-65
2022/09/10 00:27:43;;;;;;;12.30;1.33;;;;;;;;;;5048031;28;20582;-65
2022/09/10 00:30:10;;;;;;;10.00;1.42;;;;;;;;;;5052305;28;20040;-65
2022/09/10 00:32:37;;;;;;;13.77;2.47;;;;;;;;;;5047264;28;20040;-67
2022/09/10 00:35:04;;;;;;;10.15;1.27;;;;;;;;;;5049730;28;20745;-66
2022/09/10 00:37:30;;;;;;;6.13;0.70;;;;;;;;;;5047450;28;20068;-66
2022/09/10 00:39:57;;;;;;;15.38;2.30;;;;;;;;;;5047079;28;20045;-66
2022/09/10 00:42:24;;;;;;;20.30;2.47;;;;;;;;;;5049787;28;20045;-66
2022/09/10 00:45:01;;;;;;;13.73;2.15;;;;;;;;;;5050246;28;20041;-66
2022/09/10 00:47:30;;;;;;;21.77;2.85;;;;;;;;;;5047500;28;20561;-66
2022/09/10 00:50:12;;;;;;;9.32;2.08;;;;;;;;;;5047582;28;20698;-66
2022/09/10 00:52:38;;;;;;;19.23;2.83;;;;;;;;;;5047438;28;20470;-66
2022/09/10 00:55:06;;;;;;;11.02;1.23;;;;;;;;;;5046585;28;20037;-66
2022/09/10 00:57:32;;;;;;;18.60;2.92;;;;;;;;;;5047680;28;20045;-66
2022/09/10 01:00:01;;;;;;;20.00;2.65;;;;;;;;;;5048870;28;20055;-66
2022/09/10 01:02:28;;;;;;;11.00;1.80;;;;;;;;;;5042126;28;20055;-64
2022/09/10 01:04:57;;;;;;;12.48;1.42;;;;;;;;;;5025299;28;20132;-64
2022/09/10 01:07:28;;;;;;;24.95;2.75;;;;;;;;;;5045449;28;20395;-64
2022/09/10 01:09:56;;;;;;;11.43;1.35;;;;;;;;;;5045574;28;20057;-64
2022/09/10 01:12:41;;;;;;;20.48;2.22;;;;;;;;;;5049388;28;20041;-65
2022/09/10 01:15:14;;;;;;;22.45;2.78;;;;;;;;;;5045602;28;20045;-65
2022/09/10 01:17:50;;;;;;;20.92;2.17;;;;;;;;;;5046670;28;20771;-64
2022/09/10 01:20:28;;;;;;;9.20;1.55;;;;;;;;;;5045390;28;20385;-67
2022/09/10 01:23:05;;;;;;;25.60;2.75;;;;;;;;;;5044509;28;20049;-66
2022/09/10 01:25:50;;;;;;;5.55;0.90;;;;;;;;;;5045760;28;20045;-66
2022/09/10 01:28:21;;;;;;;18.30;2.65;;;;;;;;;;5043986;28;20043;-66
2022/09/10 01:30:52;;;;;;;13.25;1.45;;;;;;;;;;5045016;28;20532;-66
2022/09/10 01:33:19;;;;;;;27.65;2.92;;;;;;;;;;5048241;28;20049;-66
2022/09/10 01:35:51;;;;;;;31.23;3.13;;;;;;;;;;5065339;28;20099;-66
2022/09/10 01:38:34;;;;;;;13.05;1.45;;;;;;;;;;5042151;28;20055;-67
2022/09/10 01:41:02;;;;;;;23.25;2.42;;;;;;;;;;5046590;28;20037;-70
2022/09/10 01:43:33;;;;;;;10.10;2.08;;;;;;;;;;5044576;28;20388;-67
2022/09/10 01:46:12;;;;;;;7.72;1.00;;;;;;;;;;5045692;28;20053;-68
2022/09/10 01:48:53;;;;;;;7.70;0.85;;;;;;;;;;5046279;28;20053;-68
2022/09/10 01:51:39;;;;;;;21.95;2.95;;;;;;;;;;5045868;28;20049;-67
2022/09/10 01:54:11;;;;;;;9.18;1.25;;;;;;;;;;5050637;28;20052;-68
2022/09/10 01:56:42;;;;;;;19.08;2.42;;;;;;;;;;5045172;28;20582;-68
2022/09/10 01:59:13;;;;;;;11.87;1.40;;;;;;;;;;5044744;28;20060;-68
2022/09/10 02:01:46;;;;;;;18.70;2.13;;;;;;;;;;5044280;28;20499;-66
2022/09/10 02:04:13;;;;;;;19.95;2.55;;;;;;;;;;5044375;28;20051;-66
2022/09/10 02:06:42;;;;;;;7.07;0.93;;;;;;;;;;5044841;28;20132;-66
2022/09/10 02:09:11;;;;;;;13.65;1.80;;;;;;;;;;5045216;28;20486;-68
2022/09/10 02:11:46;;;;;;;28.65;3.53;;;;;;;;;;5044745;28;20033;-68
2022/09/10 02:14:20;;;;;;;7.97;0.85;;;;;;;;;;5044962;28;20575;-68
2022/09/10 02:17:05;;;;;;;6.88;0.85;;;;;;;;;;5046874;28;20135;-66
2022/09/10 02:19:32;;;;;;;10.70;1.15;;;;;;;;;;5044876;28;20045;-65
2022/09/10 02:21:59;;;;;;;14.15;1.63;;;;;;;;;;5045908;28;20048;-66
2022/09/10 02:24:26;;;;;;;17.48;2.08;;;;;;;;;;5048412;28;20422;-67
2022/09/10 02:26:53;;;;;;;14.65;1.55;;;;;;;;;;5046881;28;20060;-67
2022/09/10 02:29:20;;;;;;;17.77;1.90;;;;;;;;;;5043571;28;20091;-67
2022/09/10 02:31:47;;;;;;;19.85;2.40;;;;;;;;;;5043379;28;20048;-70
2022/09/10 02:34:15;;;;;;;14.73;1.70;;;;;;;;;;5043994;28;20033;-66
2022/09/10 02:36:45;;;;;;;30.02;3.42;;;;;;;;;;5043819;28;20049;-66
2022/09/10 02:39:12;;;;;;;7.97;1.33;;;;;;;;;;5048755;28;20049;-67
2022/09/10 02:41:40;;;;;;;18.42;2.45;;;;;;;;;;5045747;28;20426;-66
2022/09/10 02:44:07;;;;;;;16.30;1.85;;;;;;;;;;5043631;28;20029;-71
2022/09/10 02:46:35;;;;;;;8.25;1.15;;;;;;;;;;5044435;28;20550;-71
2022/09/10 02:49:02;;;;;;;10.75;2.25;;;;;;;;;;5044122;28;20128;-71
2022/09/10 02:51:32;;;;;;;38.80;3.95;;;;;;;;;;5045440;28;20059;-68
2022/09/10 02:53:59;;;;;;;5.47;0.93;;;;;;;;;;5043318;28;20045;-70
2022/09/10 02:56:25;;;;;;;13.27;2.28;;;;;;;;;;5045327;28;20040;-70
2022/09/10 02:58:51;;;;;;;35.40;4.05;;;;;;;;;;5044834;28;20115;-71
2022/09/10 03:01:19;;;;;;;14.63;1.83;;;;;;;;;;5043234;28;20068;-69
2022/09/10 03:03:59;;;;;;;12.65;1.42;;;;;;;;;;5043136;28;20131;-68
2022/09/10 03:06:28;;;;;;;18.02;3.72;;;;;;;;;;5047161;28;20041;-75
2022/09/10 03:08:54;;;;;;;13.95;1.52;;;;;;;;;;5046568;28;20073;-72
2022/09/10 03:11:26;;;;;;;25.50;3.15;;;;;;;;;;5045258;28;20048;-69
2022/09/10 03:13:53;;;;;;;7.38;0.88;;;;;;;;;;5043724;28;20099;-69
2022/09/10 03:16:22;;;;;;;5.60;0.77;;;;;;;;;;5043979;28;20045;-70
2022/09/10 03:18:50;;;;;;;24.95;2.63;;;;;;;;;;5045213;28;20048;-70
2022/09/10 03:21:19;;;;;;;24.83;3.00;;;;;;;;;;5047879;28;20045;-70
2022/09/10 03:23:46;;;;;;;17.20;2.72;;;;;;;;;;5045094;28;20073;-68
2022/09/10 03:26:19;;;;;;;14.17;1.53;;;;;;;;;;5043444;28;20033;-67
2022/09/10 03:28:46;;;;;;;12.65;1.63;;;;;;;;;;5043449;28;20294;-67
2022/09/10 03:31:14;;;;;;;10.65;1.50;;;;;;;;;;5043116;28;20107;-67
2022/09/10 03:33:45;;;;;;;25.75;2.75;;;;;;;;;;5043333;28;20038;-68
2022/09/10 03:36:12;;;;;;;13.80;1.48;;;;;;;;;;5048036;28;20044;-67
2022/09/10 03:38:41;;;;;;;15.65;1.63;;;;;;;;;;5044231;28;20044;-70
2022/09/10 03:41:07;;;;;;;10.48;1.10;;;;;;;;;;5044511;28;20048;-72
2022/09/10 03:43:34;;;;;;;10.95;1.88;;;;;;;;;;5043598;28;20060;-71
2022/09/10 03:46:05;;;;;;;15.07;2.00;;;;;;;;;;5043548;28;20049;-66
2022/09/10 03:48:37;;;;;;;10.82;1.60;;;;;;;;;;5045008;28;20144;-67
2022/09/10 03:51:05;;;;;;;17.88;1.88;;;;;;;;;;5062146;28;20137;-67
2022/09/10 03:53:32;;;;;;;21.50;2.35;;;;;;;;;;5046172;28;20098;-66
2022/09/10 03:55:59;;;;;;;7.72;1.48;;;;;;;;;;5047369;28;20124;-64
2022/09/10 03:58:26;;;;;;;8.57;1.38;;;;;;;;;;5046564;28;20128;-63
2022/09/10 04:00:53;;;;;;;19.10;2.13;;;;;;;;;;5046766;28;20498;-63
2022/09/10 04:03:19;;;;;;;13.55;1.42;;;;;;;;;;5052143;28;20084;-66
2022/09/10 04:05:46;;;;;;;25.10;3.45;;;;;;;;;;5047398;28;20071;-65
2022/09/10 04:08:13;;;;;;;28.65;2.92;;;;;;;;;;5047026;28;20055;-64
2022/09/10 04:10:40;;;;;;;16.00;1.67;;;;;;;;;;5042547;28;20064;-66
2022/09/10 04:13:08;;;;;;;6.25;1.02;;;;;;;;;;5046726;28;20041;-65
2022/09/10 04:15:38;;;;;;;23.90;2.60;;;;;;;;;;5050248;28;20055;-66
2022/09/10 04:18:05;;;;;;;11.20;1.45;;;;;;;;;;5051257;28;20052;-65
2022/09/10 04:20:33;;;;;;;6.43;1.85;;;;;;;;;;5046248;28;20569;-66
2022/09/10 04:23:04;;;;;;;15.68;1.67;;;;;;;;;;5050828;28;20127;-65
2022/09/10 04:25:33;;;;;;;6.10;0.75;;;;;;;;;;5046767;28;20566;-65
2022/09/10 04:28:00;;;;;;;14.48;1.80;;;;;;;;;;5046215;28;20045;-64
2022/09/10 04:30:28;;;;;;;22.25;2.53;;;;;;;;;;5049335;28;20057;-67
2022/09/10 04:32:54;;;;;;;22.73;3.28;;;;;;;;;;5049284;28;20423;-67
2022/09/10 04:35:21;;;;;;;14.52;4.35;;;;;;;;;;5047875;28;20063;-68
2022/09/10 04:37:47;;;;;;;30.67;3.15;;;;;;;;;;5047386;28;20075;-68
2022/09/10 04:40:15;;;;;;;12.25;1.35;;;;;;;;;;5046760;28;20079;-68
2022/09/10 04:42:42;;;;;;;10.90;1.20;;;;;;;;;;5047263;28;20042;-68
2022/09/10 04:45:08;;;;;;;20.60;2.42;;;;;;;;;;5064080;28;20045;-69
2022/09/10 04:47:35;;;;;;;10.55;1.52;;;;;;;;;;5045280;28;20045;-68
2022/09/10 04:50:02;;;;;;;16.65;1.90;;;;;;;;;;5047093;28;20041;-69
2022/09/10 04:52:29;;;;;;;32.92;5.18;;;;;;;;;;5045568;28;20041;-67
2022/09/10 04:54:55;;;;;;;7.05;0.80;;;;;;;;;;5046428;28;20407;-67
2022/09/10 04:57:24;;;;;;;24.42;2.90;;;;;;;;;;5049093;28;20103;-67
2022/09/10 04:59:52;;;;;;;27.70;2.92;;;;;;;;;;5047882;28;20603;-68
2022/09/10 05:02:20;;;;;;;11.27;1.42;;;;;;;;;;5045509;28;20167;-68
2022/09/10 05:04:48;;;;;;;21.60;2.35;;;;;;;;;;5045653;28;20045;-69
2022/09/10 05:07:14;;;;;;;34.80;3.65;;;;;;;;;;5045087;28;20037;-69
2022/09/10 05:09:41;;;;;;;17.42;1.77;;;;;;;;;;5047836;28;20042;-70
2022/09/10 05:12:07;;;;;;;12.20;2.53;;;;;;;;;;5049899;28;20115;-69
2022/09/10 05:14:34;;;;;;;21.15;2.40;;;;;;;;;;5046829;28;20048;-70
2022/09/10 05:17:02;;;;;;;8.95;1.02;;;;;;;;;;5045813;28;20083;-69
2022/09/10 05:19:29;;;;;;;8.80;1.00;;;;;;;;;;5045047;28;20461;-69
2022/09/10 05:22:01;;;;;;;13.38;1.45;;;;;;;;;;5045090;28;20046;-67
2022/09/10 05:24:30;;;;;;;17.15;1.75;;;;;;;;;;5048208;28;20135;-66
2022/09/10 05:26:58;;;;;;;27.42;2.78;;;;;;;;;;5063117;28;20053;-68
2022/09/10 05:29:24;;;;;;;20.73;2.33;;;;;;;;;;5059726;28;20123;-67
2022/09/10 05:31:51;;;;;;;11.98;1.38;;;;;;;;;;5045497;28;20103;-67
2022/09/10 05:34:17;;;;;;;30.60;3.45;;;;;;;;;;5046062;28;20037;-67
2022/09/10 05:36:44;;;;;;;24.25;2.53;;;;;;;;;;5046992;28;20053;-67
2022/09/10 05:39:10;;;;;;;9.80;1.15;;;;;;;;;;5050989;28;20522;-68
2022/09/10 05:41:37;;;;;;;15.27;1.77;;;;;;;;;;5045316;28;20048;-67
2022/09/10 05:44:04;;;;;;;16.10;1.75;;;;;;;;;;5044593;28;20051;-65
2022/09/10 05:46:32;;;;;;;14.68;1.63;;;;;;;;;;5048498;28;20072;-66
2022/09/10 05:49:06;;;;;;;13.35;2.25;;;;;;;;;;5046465;28;20029;-71
2022/09/10 05:51:33;;;;;;;24.85;2.80;;;;;;;;;;5046419;28;20045;-68
2022/09/10 05:54:01;;;;;;;6.55;1.88;;;;;;;;;;5048307;28;20041;-71
2022/09/10 05:56:30;;;;;;;11.85;1.30;;;;;;;;;;5044608;28;20048;-70
2022/09/10 05:58:57;;;;;;;15.82;4.22;;;;;;;;;;5045833;28;20037;-67
2022/09/10 06:01:24;;;;;;;10.30;1.50;;;;;;;;;;5045263;28;20076;-69
2022/09/10 06:03:51;;;;;;;15.90;2.25;;;;;;;;;;5044548;28;20056;-67
2022/09/10 06:06:18;;;;;;;10.70;1.30;;;;;;;;;;5049186;28;20045;-67
2022/09/10 06:08:56;;;;;;;14.45;3.22;;;;;;;;;;5049032;28;20044;-70
2022/09/10 06:11:49;;;;;;;27.08;2.88;;;;;;;;;;5047097;28;20053;-67
2022/09/10 06:14:16;;;;;;;21.63;2.70;;;;;;;;;;5043637;28;20071;-72
2022/09/10 06:16:44;;;;;;;21.45;2.17;;;;;;;;;;5044328;28;20499;-72
2022/09/10 06:19:11;;;;;;;7.85;0.88;;;;;;;;;;5044279;28;20041;-72
2022/09/10 06:21:38;;;;;;;23.25;2.80;;;;;;;;;;5045072;28;20049;-72
2022/09/10 06:24:06;;;;;;;19.55;2.88;;;;;;;;;;5047975;28;20091;-72
2022/09/10 06:26:35;;;;;;;3.60;0.45;;;;;;;;;;5044808;28;20462;-72
2022/09/10 06:29:06;;;;;;;16.92;1.88;;;;;;;;;;5061690;28;20076;-71
2022/09/10 06:31:33;;;;;;;15.32;1.75;;;;;;;;;;5033970;28;20041;-72
2022/09/10 06:34:00;;;;;;;1.65;1.10;;;;;;;;;;5045166;28;20045;-72
2022/09/10 06:36:29;;;;;;;22.35;2.40;;;;;;;;;;5047082;28;20048;-69
2022/09/10 06:38:57;;;;;;;4.78;0.55;;;;;;;;;;5046950;28;20106;-70
2022/09/10 06:41:24;;;;;;;7.97;0.90;;;;;;;;;;5044061;28;20037;-70
2022/09/10 06:43:56;;;;;;;26.35;3.05;;;;;;;;;;5042843;28;20076;-71
2022/09/10 06:46:30;;;;;;;13.43;2.42;;;;;;;;;;5044201;28;20044;-69
2022/09/10 06:49:20;;;;;;;30.33;3.47;;;;;;;;;;5042617;28;20500;-69
2022/09/10 06:51:48;;;;;;;62.20;5.50;;;;;;;;;;5027154;28;20048;-70
2022/09/10 06:54:16;;;;;;;26.52;4.38;;;;;;;;;;5043749;28;20052;-69
2022/09/10 06:56:45;;;;;;;30.75;3.33;;;;;;;;;;5042183;28;20503;-69
2022/09/10 06:59:17;;;;;;;13.07;1.50;;;;;;;;;;5044592;28;20083;-71
2022/09/10 07:01:46;;;;;;;21.00;2.88;;;;;;;;;;5044000;28;20083;-71
2022/09/10 07:04:14;;;;;;;14.98;1.65;;;;;;;;;;5044333;28;20045;-69
2022/09/10 07:06:41;;;;;;;14.25;2.22;;;;;;;;;;5045630;28;20456;-69
2022/09/10 07:09:14;;;;;;;22.30;2.30;;;;;;;;;;5048549;28;20049;-72
2022/09/10 07:11:53;;;;;;;16.83;1.85;;;;;;;;;;5046229;28;20511;-71
2022/09/10 07:14:20;;;;;;;27.98;3.58;;;;;;;;;;5044079;28;20048;-71
2022/09/10 07:16:50;;;;;;;20.85;2.20;;;;;;;;;;5043985;28;20041;-71
2022/09/10 07:19:19;;;;;;;11.00;1.75;;;;;;;;;;5045432;28;20098;-71
2022/09/10 07:21:46;;;;;;;31.08;3.63;;;;;;;;;;5044316;28;20046;-72
2022/09/10 07:24:14;;;;;;;22.50;3.03;;;;;;;;;;5048342;28;20053;-71
2022/09/10 07:26:51;;;;;;;19.33;2.13;;;;;;;;;;5049630;28;20116;-73
2022/09/10 07:29:18;;;;;;;15.45;1.67;;;;;;;;;;5047391;28;20049;-73
2022/09/10 07:31:47;;;;;;;24.35;2.95;;;;;;;;;;5047999;28;20406;-72
2022/09/10 07:34:19;;;;;;;;;;;;;;;;;;5036097;28;20057;-73
2022/09/10 07:36:45;;;;;;;12.60;1.42;;;;;;;;;;5050066;28;19921;-70
2022/09/10 07:39:12;;;;;;;9.48;2.85;;;;;;;;;;5053763;28;20048;-71
2022/09/10 07:41:40;;;;;;;36.70;4.13;;;;;;;;;;5046935;28;20561;-70
2022/09/10 07:44:09;;;;;;;20.05;2.70;;;;;;;;;;5047049;28;20071;-70
2022/09/10 07:46:39;;;;;;;33.63;3.38;;;;;;;;;;5032154;28;20164;-71
2022/09/10 07:49:09;;;;;;;27.52;2.97;;;;;;;;;;5047358;28;20380;-71
2022/09/10 07:51:38;;;;;;;25.90;3.33;;;;;;;;;;5048519;28;20106;-71
2022/09/10 07:54:05;;;;;;;8.43;0.93;;;;;;;;;;5050680;28;20053;-71
2022/09/10 07:56:38;;;;;;;35.97;3.75;;;;;;;;;;5048212;28;20045;-71
2022/09/10 07:59:07;;;;;;;4.50;0.55;;;;;;;;;;5047212;28;20048;-71
2022/09/10 08:01:44;;;;;;;24.00;2.58;;;;;;;;;;5046350;28;20043;-70
2022/09/10 08:04:14;;;;;;;6.63;0.73;;;;;;;;;;5047593;28;20068;-71
2022/09/10 08:06:40;;;;;;;12.73;1.77;;;;;;;;;;5050301;28;23285;-71
2022/09/10 08:09:08;;;;;;;24.70;2.60;;;;;;;;;;5049479;28;20503;-70
2022/09/10 08:11:39;;;;;;;10.55;1.42;;;;;;;;;;5046127;28;20064;-78
2022/09/10 08:14:09;;;;;;;32.55;3.88;;;;;;;;;;5046636;28;20584;-69
2022/09/10 08:16:36;;;;;;;19.23;3.40;;;;;;;;;;5048562;28;20040;-70
2022/09/10 08:19:12;;;;;;;10.18;1.25;;;;;;;;;;5046603;28;20467;-72
2022/09/10 08:21:39;;;;;;;28.92;3.38;;;;;;;;;;5047098;28;20132;-70
2022/09/10 08:24:07;;;;;;;12.02;2.20;;;;;;;;;;5049980;28;20044;-69
2022/09/10 08:26:34;;;;;;;10.93;1.20;;;;;;;;;;5048948;28;20037;-71
2022/09/10 08:29:04;;;;;;;28.65;3.03;;;;;;;;;;5046062;28;20045;-70
2022/09/10 08:31:31;;;;;;;11.32;1.55;;;;;;;;;;5047770;28;20479;-71
2022/09/10 08:34:05;;;;;;;10.23;1.25;;;;;;;;;;5046492;28;20044;-74
2022/09/10 08:36:33;;;;;;;30.30;3.60;;;;;;;;;;5049770;28;20080;-74
2022/09/10 08:39:00;;;;;;;6.53;1.70;;;;;;;;;;5052352;28;20090;-68
2022/09/10 08:41:39;;;;;;;17.90;1.90;;;;;;;;;;5046499;28;20128;-71
2022/09/10 08:44:33;;;;;;;10.25;1.17;;;;;;;;;;5047192;28;20071;-79
2022/09/10 08:47:01;;;;;;;19.50;4.13;;;;;;;;;;5039791;28;20041;-72
2022/09/10 08:49:28;;;;;;;24.15;4.18;;;;;;;;;;5046245;28;20048;-71
2022/09/10 08:52:05;;;;;;;9.88;1.23;;;;;;;;;;5046831;28;20045;-68
2022/09/10 08:54:51;;;;;;;41.10;6.63;;;;;;;;;;5050088;28;20045;-73
2022/09/10 08:57:40;;;;;;;10.07;1.52;;;;;;;;;;5047659;28;20041;-69
2022/09/10 09:00:11;;;;;;;9.30;1.08;;;;;;;;;;5045601;28;20049;-69
2022/09/10 09:03:02;;;;;;;13.35;1.48;;;;;;;;;;5019185;28;20057;-78
2022/09/10 09:05:39;;;;;;;6.18;0.77;;;;;;;;;;5008282;28;20538;-74
2022/09/10 09:08:09;;;;;;;19.55;2.45;;;;;;;;;;5003176;28;20041;-68
2022/09/10 09:10:36;;;;;;;10.65;1.50;;;;;;;;;;5008466;28;20551;-71
2022/09/10 09:13:08;;;;;;;18.25;3.13;;;;;;;;;;5020146;28;20126;-71
2022/09/10 09:15:40;;;;;;;21.70;2.72;;;;;;;;;;5008418;28;20042;-70
2022/09/10 09:18:14;;;;;;;5.28;0.65;;;;;;;;;;5010620;28;20056;-71
2022/09/10 09:20:45;;;;;;;21.75;3.55;;;;;;;;;;5003689;28;20041;-71
2022/09/10 09:23:21;;;;;;;7.68;0.90;;;;;;;;;;5008221;28;20413;-71
2022/09/10 09:25:50;;;;;;;26.55;3.13;;;;;;;;;;5004253;28;20248;-69
2022/09/10 09:28:24;;;;;;;6.57;0.73;;;;;;;;;;5007833;28;20052;-72
2022/09/10 09:30:58;;;;;;;15.55;2.08;;;;;;;;;;5007932;28;20038;-72
2022/09/10 09:33:28;;;;;;;10.77;1.25;;;;;;;;;;4998844;28;20057;-71
2022/09/10 09:36:01;;;;;;;11.25;1.38;;;;;;;;;;5031211;28;20056;-69
2022/09/10 09:38:40;;;;;;;24.43;2.60;;;;;;;;;;5017868;28;20592;-68
2022/09/10 09:41:19;;;;;;;6.25;1.23;;;;;;;;;;5007804;28;20286;-70
2022/09/10 09:43:49;;;;;;;32.92;4.38;;;;;;;;;;5037650;28;20036;-70
2022/09/10 09:46:17;;;;;;;12.55;1.40;;;;;;;;;;5045908;28;20116;-70
2022/09/10 09:48:47;;;;;;;20.80;2.67;;;;;;;;;;5046280;28;20052;-72
2022/09/10 09:51:19;;;;;;;18.67;2.00;;;;;;;;;;5063336;28;20041;-71
2022/09/10 09:53:50;;;;;;;15.23;1.92;;;;;;;;;;5046252;28;20041;-71
2022/09/10 09:56:41;;;;;;;11.02;1.25;;;;;;;;;;5046448;28;20068;-71
2022/09/10 09:59:24;;;;;;;9.55;1.15;;;;;;;;;;5046146;28;20067;-71
2022/09/10 10:01:51;;;;;;;14.18;1.50;;;;;;;;;;5046381;28;20041;-71
2022/09/10 10:04:20;;;;;;;7.38;0.82;;;;;;;;;;5047007;28;20414;-71
2022/09/10 10:06:52;;;;;;;27.80;2.88;;;;;;;;;;5044561;28;20484;-71
2022/09/10 10:09:21;;;;;;;10.68;1.50;;;;;;;;;;5046600;28;20106;-71
2022/09/10 10:11:47;;;;;;;28.00;3.00;;;;;;;;;;5045797;28;20426;-71
2022/09/10 10:14:29;;;;;;;20.55;2.25;;;;;;;;;;5045614;28;20047;-71
2022/09/10 10:16:57;;;;;;;6.05;0.73;;;;;;;;;;5045966;28;20041;-71
2022/09/10 10:19:26;;;;;;;19.52;2.47;;;;;;;;;;5045844;28;20119;-71
2022/09/10 10:21:53;;;;;;;7.68;1.35;;;;;;;;;;5046536;28;20041;-71
2022/09/10 10:24:28;;;;;;;11.40;1.33;;;;;;;;;;5046961;28;20049;-71
2022/09/10 10:26:55;;;;;;;29.08;3.03;;;;;;;;;;5062485;28;20046;-71
2022/09/10 10:29:22;;;;;;;12.82;1.70;;;;;;;;;;5042727;28;20040;-72
2022/09/10 10:31:49;;;;;;;15.88;1.80;;;;;;;;;;5045830;28;20041;-71
2022/09/10 10:34:27;;;;;;;19.15;2.20;;;;;;;;;;5045890;28;20044;-71
2022/09/10 10:36:54;;;;;;;10.65;2.92;;;;;;;;;;5045953;28;20037;-71
2022/09/10 10:39:39;;;;;;;15.32;3.40;;;;;;;;;;5050635;28;20049;-71
2022/09/10 10:42:19;;;;;;;4.03;0.60;;;;;;;;;;5048747;28;20120;-71
2022/09/10 10:44:54;;;;;;;11.00;1.25;;;;;;;;;;5046166;28;20045;-71
2022/09/10 10:47:20;;;;;;;11.05;2.45;;;;;;;;;;5045897;28;20045;-72
2022/09/10 10:49:50;;;;;;;24.20;3.08;;;;;;;;;;5045786;28;20041;-71
2022/09/10 10:52:32;;;;;;;21.10;2.45;;;;;;;;;;5045630;28;20385;-71
2022/09/10 10:55:11;;;;;;;13.18;1.52;;;;;;;;;;5046096;28;20033;-71
2022/09/10 10:57:38;;;;;;;14.88;2.17;;;;;;;;;;5047580;28;20036;-71
2022/09/10 11:00:08;;;;;;;6.55;0.75;;;;;;;;;;5048194;28;20052;-71
2022/09/10 11:02:41;;;;;;;30.05;3.35;;;;;;;;;;5045296;28;20045;-71
2022/09/10 11:05:22;;;;;;;17.33;3.03;;;;;;;;;;5045957;28;20045;-71
2022/09/10 11:07:49;;;;;;;22.35;2.45;;;;;;;;;;5045537;28;20099;-71
2022/09/10 11:10:20;;;;;;;10.88;1.92;;;;;;;;;;5046527;28;20768;-71
2022/09/10 11:13:02;;;;;;;12.93;1.75;;;;;;;;;;5046319;28;20046;-71
2022/09/10 11:15:36;;;;;;;14.20;1.58;;;;;;;;;;5046024;28;20051;-70
2022/09/10 11:18:10;;;;;;;11.00;1.42;;;;;;;;;;5050163;28;20033;-69
2022/09/10 11:20:41;;;;;;;17.45;1.85;;;;;;;;;;5045773;28;20049;-70
2022/09/10 11:23:26;;;;;;;25.35;3.65;;;;;;;;;;5045117;28;20388;-69
2022/09/10 11:26:07;;;;;;;29.98;3.60;;;;;;;;;;5045130;28;20037;-68
2022/09/10 11:28:40;;;;;;;10.68;1.25;;;;;;;;;;5044756;28;20043;-68
2022/09/10 11:31:12;;;;;;;22.63;2.42;;;;;;;;;;5044490;28;20060;-66
2022/09/10 11:33:58;;;;;;;42.03;4.53;;;;;;;;;;5045568;28;20147;-67
2022/09/10 11:36:41;;;;;;;21.02;2.60;;;;;;;;;;5045253;28;20044;-65
2022/09/10 11:39:17;;;;;;;9.57;1.90;;;;;;;;;;5048187;28;20037;-66
2022/09/10 11:41:45;;;;;;;37.95;4.35;;;;;;;;;;5043397;28;20064;-71
2022/09/10 11:44:27;;;;;;;14.25;1.95;;;;;;;;;;5044444;28;20037;-71
2022/09/10 11:46:58;;;;;;;19.48;2.03;;;;;;;;;;5045365;28;20065;-71
2022/09/10 11:49:28;;;;;;;12.35;1.55;;;;;;;;;;5045151;28;20457;-71
2022/09/10 11:51:55;;;;;;;15.82;1.88;;;;;;;;;;5049033;28;20068;-71
2022/09/10 11:54:25;;;;;;;17.70;1.95;;;;;;;;;;5049857;28;20037;-69
2022/09/10 11:57:17;;;;;;;27.25;2.83;;;;;;;;;;5045398;28;20040;-71
2022/09/10 11:59:53;;;;;;;18.17;1.95;;;;;;;;;;5044606;28;20041;-71
2022/09/10 12:02:47;;;;;;;20.40;2.30;;;;;;;;;;5045392;28;20111;-71
2022/09/10 12:05:17;;;;;;;8.77;0.98;;;;;;;;;;5044608;28;20121;-71
2022/09/10 12:07:55;;;;;;;33.47;3.55;;;;;;;;;;5044283;28;20588;-70
2022/09/10 12:10:31;;;;;;;11.30;1.50;;;;;;;;;;5045498;28;20037;-71
2022/09/10 12:12:58;;;;;;;25.50;2.63;;;;;;;;;;5045754;28;20452;-70
2022/09/10 12:15:35;;;;;;;18.75;2.13;;;;;;;;;;5049725;28;20051;-70
2022/09/10 12:18:11;;;;;;;13.27;1.50;;;;;;;;;;5050546;28;20055;-71
2022/09/10 12:20:42;;;;;;;15.70;2.00;;;;;;;;;;5048036;28;20056;-71
2022/09/10 12:23:17;;;;;;;22.67;3.28;;;;;;;;;;5047973;28;20384;-71
2022/09/10 12:25:44;;;;;;;28.60;3.03;;;;;;;;;;5047620;28;20041;-72
2022/09/10 12:28:30;;;;;;;9.10;1.17;;;;;;;;;;5049338;28;20041;-72
2022/09/10 12:30:59;;;;;;;25.45;2.65;;;;;;;;;;5050397;28;20034;-72
2022/09/10 12:33:28;;;;;;;9.50;1.10;;;;;;;;;;5052593;28;20052;-67
2022/09/10 12:35:54;;;;;;;17.52;2.97;;;;;;;;;;5048882;28;20056;-65
2022/09/10 12:38:39;;;;;;;26.92;3.20;;;;;;;;;;5047388;28;20041;-68
2022/09/10 12:41:09;;;;;;;6.13;0.90;;;;;;;;;;5048469;28;20059;-73
2022/09/10 12:43:39;;;;;;;19.48;2.30;;;;;;;;;;5047456;28;20555;-69
2022/09/10 12:46:06;;;;;;;19.15;2.30;;;;;;;;;;5048000;28;20033;-83
2022/09/10 12:48:36;;;;;;;14.32;1.77;;;;;;;;;;5051357;28;20041;-69
2022/09/10 12:51:09;;;;;;;21.40;3.05;;;;;;;;;;5050969;28;20553;-69
2022/09/10 12:53:47;;;;;;;12.73;1.38;;;;;;;;;;5047873;28;20079;-75
2022/09/10 12:56:14;;;;;;;25.17;2.72;;;;;;;;;;5047681;28;20052;-73
2022/09/10 12:59:07;;;;;;;9.40;1.05;;;;;;;;;;5047464;28;20120;-74
2022/09/10 13:02:00;;;;;;;22.17;2.92;;;;;;;;;;5047532;28;20032;-70
2022/09/10 13:04:34;;;;;;;12.57;1.37;;;;;;;;;;5045551;28;20041;-70
2022/09/10 13:07:03;;;;;;;15.95;2.83;;;;;;;;;;5049455;28;22695;-70
2022/09/10 13:09:32;;;;;;;7.30;1.08;;;;;;;;;;5051759;28;20438;-68
2022/09/10 13:12:05;;;;;;;20.33;2.33;;;;;;;;;;5048358;28;20063;-67
2022/09/10 13:14:32;;;;;;;;;;;;;;;;;;5047719;28;20040;-68
2022/09/10 13:16:58;;;;;;;12.73;1.60;;;;;;;;;;5047241;28;19928;-66
2022/09/10 13:19:25;;;;;;;29.30;3.30;;;;;;;;;;5047331;28;20048;-68
2022/09/10 13:21:52;;;;;;;15.52;2.70;;;;;;;;;;5048290;28;20033;-65
2022/09/10 13:24:31;;;;;;;13.73;1.58;;;;;;;;;;5051108;28;20041;-69
2022/09/10 13:27:03;;;;;;;33.63;3.58;;;;;;;;;;5048016;28;20053;-71
2022/09/10 13:29:35;;;;;;;7.18;1.60;;;;;;;;;;5047914;28;20102;-78
2022/09/10 13:32:05;;;;;;;20.90;2.17;;;;;;;;;;5046872;28;20045;-74
2022/09/10 13:34:32;;;;;;;14.70;2.50;;;;;;;;;;5046867;28;20037;-68
2022/09/10 13:37:10;;;;;;;11.15;1.25;;;;;;;;;;5046868;28;20056;-67
2022/09/10 13:39:42;;;;;;;15.70;1.73;;;;;;;;;;5050303;28;20060;-63
2022/09/10 13:42:14;;;;;;;23.37;2.47;;;;;;;;;;5048977;28;20055;-71
2022/09/10 13:44:48;;;;;;;27.50;3.17;;;;;;;;;;5046833;28;20041;-71
2022/09/10 13:47:17;;;;;;;21.02;2.92;;;;;;;;;;5046315;28;20654;-69
2022/09/10 13:49:52;;;;;;;25.20;5.10;;;;;;;;;;5046663;28;20091;-72
2022/09/10 13:52:21;;;;;;;6.80;0.88;;;;;;;;;;5050951;28;20037;-72
2022/09/10 13:54:50;;;;;;;19.15;2.30;;;;;;;;;;5048056;28;20054;-71
2022/09/10 13:57:19;;;;;;;30.33;3.40;;;;;;;;;;5049972;28;20408;-71
2022/09/10 13:59:47;;;;;;;14.10;2.75;;;;;;;;;;5046551;28;20122;-71
2022/09/10 14:02:18;;;;;;;21.65;3.42;;;;;;;;;;5046349;28;20049;-73
2022/09/10 14:04:45;;;;;;;20.65;2.13;;;;;;;;;;5044976;28;20056;-73
2022/09/10 14:07:20;;;;;;;12.57;1.45;;;;;;;;;;5046751;28;20491;-73
2022/09/10 14:09:48;;;;;;;29.90;3.17;;;;;;;;;;5047619;28;20090;-72
2022/09/10 14:12:17;;;;;;;18.90;2.28;;;;;;;;;;5048862;28;20052;-72
2022/09/10 14:14:46;;;;;;;18.83;1.98;;;;;;;;;;5045333;28;20041;-73
2022/09/10 14:17:24;;;;;;;14.85;1.70;;;;;;;;;;5046282;28;20043;-73
2022/09/10 14:20:00;;;;;;;23.83;2.55;;;;;;;;;;5045720;28;20087;-73
2022/09/10 14:22:27;;;;;;;17.00;2.17;;;;;;;;;;5049860;28;20045;-73
2022/09/10 14:24:55;;;;;;;7.55;0.85;;;;;;;;;;5047362;28;20041;-73
2022/09/10 14:27:23;;;;;;;12.57;1.38;;;;;;;;;;5050324;28;20037;-73
2022/09/10 14:29:50;;;;;;;28.63;3.08;;;;;;;;;;5045264;28;20045;-73
2022/09/10 14:32:18;;;;;;;11.23;1.25;;;;;;;;;;5045129;28;20029;-73
2022/09/10 14:34:46;;;;;;;23.83;3.95;;;;;;;;;;5043475;28;20045;-73
2022/09/10 14:37:23;;;;;;;34.50;3.63;;;;;;;;;;5043426;28;20480;-73
2022/09/10 14:39:50;;;;;;;25.58;2.70;;;;;;;;;;5047496;28;20057;-73
2022/09/10 14:42:25;;;;;;;22.63;2.47;;;;;;;;;;5048706;28;20043;-73
2022/09/10 14:44:53;;;;;;;15.65;1.70;;;;;;;;;;5044074;28;20060;-74
2022/09/10 14:47:25;;;;;;;25.20;3.50;;;;;;;;;;5045138;28;20071;-73
2022/09/10 14:49:52;;;;;;;17.27;2.08;;;;;;;;;;5045629;28;20914;-73
2022/09/10 14:52:18;;;;;;;6.90;0.90;;;;;;;;;;5045897;28;20036;-73
2022/09/10 14:54:45;;;;;;;19.35;3.15;;;;;;;;;;5047784;28;20045;-73